Time;durP1;ratioP1;P1;durP2;ratioP2;P2;SDS_P1;SDS_P2;PMS_P1;PMS_P2;Temp;Humidity;BMP_temperature;BMP_pressure;BME280_temperature;BME280_humidity;BME280_pressure;Samples;Min_cycle;Max_cycle;Signal;HPM_P1;HPM_P2
2022/11/10 00:00:34;;;;;;;;;7.67;5.33;;;;;12.35;70.07;101465.75;5058938;28;45578;-63
2022/11/10 00:03:04;;;;;;;;;4.00;4.00;;;;;12.35;70.18;101473.75;5077570;27;47446;-64
2022/11/10 00:05:30;;;;;;;;;5.33;5.00;;;;;12.31;69.87;101472.19;5066201;27;45470;-63
2022/11/10 00:07:56;;;;;;;;;6.33;6.33;;;;;12.28;69.80;101477.66;5061036;27;45319;-62
2022/11/10 00:10:22;;;;;;;;;8.33;7.33;;;;;12.33;69.70;101477.44;5056840;27;45350;-64
2022/11/10 00:12:47;;;;;;;;;3.67;3.67;;;;;12.31;70.08;101481.97;5060098;27;46442;-63
2022/11/10 00:17:56;;;;;;;;;8.67;7.00;;;;;12.29;70.25;101492.72;5056579;27;45277;-61
2022/11/10 00:20:22;;;;;;;;;5.00;3.67;;;;;12.30;70.16;101494.47;5057807;27;45469;-62
2022/11/10 00:22:47;;;;;;;;;13.67;6.67;;;;;12.30;70.44;101504.25;5057436;27;46624;-61
2022/11/10 00:25:13;;;;;;;;;6.33;4.00;;;;;12.27;70.15;101502.63;5076794;28;45289;-60
2022/11/10 00:27:38;;;;;;;;;7.67;4.33;;;;;12.19;70.10;101491.44;5077407;27;45228;-60
2022/11/10 00:30:04;;;;;;;;;4.00;4.00;;;;;12.27;70.60;101509.75;5056769;27;45518;-60
2022/11/10 00:32:30;;;;;;;;;5.67;4.00;;;;;12.26;70.36;101505.34;5057452;28;48181;-61
2022/11/10 00:34:55;;;;;;;;;7.00;7.00;;;;;12.26;70.48;101516.03;5074977;27;45425;-61
2022/11/10 00:37:21;;;;;;;;;3.00;3.00;;;;;12.27;70.57;101517.75;5067914;27;45505;-62
2022/11/10 00:39:46;;;;;;;;;3.67;3.67;;;;;12.24;70.92;101515.22;5038327;27;45588;-62
2022/11/10 00:42:12;;;;;;;;;6.00;3.33;;;;;12.26;70.88;101516.03;5076284;28;46297;-61
2022/11/10 00:44:37;;;;;;;;;6.67;4.33;;;;;12.23;70.86;101519.69;5076316;28;45362;-65
2022/11/10 00:47:02;;;;;;;;;6.00;6.00;;;;;12.19;70.52;101507.44;5062909;27;45347;-64
2022/11/10 00:49:28;;;;;;;;;7.33;6.00;;;;;12.19;70.84;101515.44;5073508;27;45575;-60
2022/11/10 00:51:54;;;;;;;;;6.00;6.00;;;;;12.20;70.98;101524.31;5056131;27;46094;-61
2022/11/10 00:54:19;;;;;;;;;5.67;4.33;;;;;12.17;71.12;101522.66;5065749;27;45303;-61
2022/11/10 00:56:44;;;;;;;;;6.00;4.00;;;;;12.14;71.10;101522.81;5074606;27;45329;-61
2022/11/10 00:59:10;;;;;;;;;5.33;5.33;;;;;12.15;71.02;101529.88;5068319;28;45660;-63
2022/11/10 01:01:35;;;;;;;;;3.00;3.00;;;;;12.13;71.34;101530.88;5075706;27;45264;-61
2022/11/10 01:04:01;;;;;;;;;5.00;4.00;;;;;12.10;71.04;101532.75;5073881;27;45346;-62
2022/11/10 01:06:26;;;;;;;;;3.67;3.00;;;;;12.10;71.42;101537.22;5072408;27;45234;-61
2022/11/10 01:08:52;;;;;;;;;4.33;2.00;;;;;12.09;71.51;101524.81;5076200;27;45374;-65
2022/11/10 01:11:20;;;;;;;;;7.67;6.33;;;;;12.07;71.46;101534.69;5075522;27;45601;-62
2022/11/10 01:13:46;;;;;;;;;8.33;6.00;;;;;12.06;71.41;101530.31;5057366;28;45481;-63
2022/11/10 01:16:19;;;;;;;;;4.67;4.67;;;;;12.06;71.65;101538.28;5079338;27;45325;-62
2022/11/10 01:18:50;;;;;;;;;6.33;3.67;;;;;12.01;71.71;101527.00;5071567;27;45232;-62
2022/11/10 01:21:15;;;;;;;;;3.67;3.33;;;;;12.05;71.76;101541.91;5076811;27;45422;-60
2022/11/10 01:23:41;;;;;;;;;4.00;4.00;;;;;12.03;71.90;101538.44;5059735;27;45338;-64
2022/11/10 01:26:07;;;;;;;;;6.00;3.67;;;;;12.02;72.02;101542.06;5059863;27;45397;-65
2022/11/10 01:28:34;;;;;;;;;8.00;4.00;;;;;11.95;71.85;101537.94;5059687;27;45561;-61
2022/11/10 01:31:07;;;;;;;;;3.00;3.00;;;;;12.01;72.36;101553.66;5059126;27;46193;-60
2022/11/10 01:33:33;;;;;;;;;4.00;2.33;;;;;12.01;72.02;101559.00;5070209;27;45378;-60
2022/11/10 01:36:00;;;;;;;;;7.67;3.00;;;;;11.99;72.02;101551.06;5078481;27;45500;-62
2022/11/10 01:38:27;;;;;;;;;6.00;3.00;;;;;11.97;72.28;101557.38;5060510;28;45565;-60
2022/11/10 01:40:52;;;;;;;;;7.33;4.67;;;;;11.97;71.99;101562.72;5063160;28;46974;-60
2022/11/10 01:43:18;;;;;;;;;8.33;4.00;;;;;11.92;72.36;101554.06;5066106;27;45470;-58
2022/11/10 01:45:49;;;;;;;;;7.67;4.00;;;;;11.96;72.64;101566.31;5041571;27;45486;-61
2022/11/10 01:48:23;;;;;;;;;4.67;4.67;;;;;11.95;72.42;101564.59;5078877;27;47491;-59
2022/11/10 01:50:48;;;;;;;;;7.00;5.67;;;;;11.95;72.52;101569.91;5080827;27;46646;-62
2022/11/10 01:53:25;;;;;;;;;1.00;1.00;;;;;11.95;72.73;101570.78;5080211;27;45522;-59
2022/11/10 01:55:52;;;;;;;;;6.67;4.00;;;;;11.81;72.36;101566.09;5076519;27;45962;-60
2022/11/10 01:58:23;;;;;;;;;4.67;4.00;;;;;11.93;72.69;101587.78;5078475;27;45696;-61
2022/11/10 02:00:49;;;;;;;;;6.33;4.00;;;;;11.93;72.78;101579.78;5075480;27;45348;-61
2022/11/10 02:03:23;;;;;;;;;6.00;6.00;;;;;11.93;73.31;101582.47;5080748;27;45731;-61
2022/11/10 02:05:49;;;;;;;;;4.33;3.00;;;;;11.91;72.87;101584.34;5067719;27;45410;-61
2022/11/10 02:08:17;;;;;;;;;10.00;8.00;;;;;11.91;72.86;101584.34;5053850;28;45275;-62
2022/11/10 02:10:43;;;;;;;;;5.33;4.00;;;;;11.92;72.85;101586.06;5066107;27;46106;-60
2022/11/10 02:13:10;;;;;;;;;9.00;6.00;;;;;11.91;73.05;101595.00;5078004;27;45363;-62
2022/11/10 02:15:37;;;;;;;;;8.33;6.67;;;;;11.92;72.91;101586.06;5059611;27;45719;-60
2022/11/10 02:18:02;;;;;;;;;7.33;7.00;;;;;11.91;73.24;101589.66;5076328;27;45363;-59
2022/11/10 02:20:28;;;;;;;;;6.00;6.00;;;;;11.90;73.16;101593.28;5077998;27;46379;-63
2022/11/10 02:22:53;;;;;;;;;8.00;6.00;;;;;11.89;73.14;101594.22;5062617;27;45442;-61
2022/11/10 02:25:21;;;;;;;;;5.50;5.50;;;;;11.88;73.26;101585.34;5070706;27;45466;-62
2022/11/10 02:27:47;;;;;;;;;14.50;8.00;;;;;11.84;73.01;101581.06;5069506;27;45985;-60
2022/11/10 02:30:14;;;;;;;;;13.00;10.00;;;;;11.89;73.40;101595.06;5060281;27;45361;-60
2022/11/10 02:32:39;;;;;;;;;12.67;7.00;;;;;11.80;73.16;101583.03;5078867;27;45365;-62
2022/11/10 02:35:05;;;;;;;;;12.00;8.50;;;;;11.84;73.32;101586.41;5058071;27;45367;-63
2022/11/10 02:37:30;;;;;;;;;9.50;9.50;;;;;11.87;73.56;101590.75;5073216;27;45581;-62
2022/11/10 02:39:55;;;;;;;;;10.33;8.00;;;;;11.85;73.20;101589.94;5060077;27;46784;-61
2022/11/10 02:42:21;;;;;;;;;9.75;9.00;;;;;11.82;73.30;101590.94;5077965;27;45331;-63
2022/11/10 02:44:46;;;;;;;;;10.33;9.00;;;;;11.83;73.73;101592.66;5063315;27;45387;-62
2022/11/10 02:47:12;;;;;;;;;9.75;8.25;;;;;11.79;73.39;101596.41;5075564;27;45660;-64
2022/11/10 02:49:37;;;;;;;;;12.00;12.00;;;;;11.78;73.64;101592.84;5078242;28;45614;-62
2022/11/10 02:52:03;;;;;;;;;9.00;9.00;;;;;11.73;73.71;101591.34;5076763;27;45281;-63
2022/11/10 02:54:28;;;;;;;;;10.00;8.00;;;;;11.75;73.91;101594.81;5075923;27;45326;-60
2022/11/10 02:56:53;;;;;;;;;7.33;7.00;;;;;11.70;73.81;101597.66;5078546;27;45675;-60
2022/11/10 02:59:19;;;;;;;;;11.33;10.00;;;;;11.73;73.81;101602.00;5081266;27;45354;-61
2022/11/10 03:01:44;;;;;;;;;8.67;8.00;;;;;11.73;74.20;101594.88;5077530;27;45234;-60
2022/11/10 03:04:10;;;;;;;;;10.50;9.00;;;;;11.71;74.00;101588.72;5062578;27;45433;-61
2022/11/10 03:06:35;;;;;;;;;13.00;9.00;;;;;11.72;74.13;101606.47;5077237;27;45520;-60
2022/11/10 03:09:01;;;;;;;;;12.75;10.50;;;;;11.70;74.31;101608.31;5058872;28;47096;-62
2022/11/10 03:11:26;;;;;;;;;9.00;8.00;;;;;11.71;74.18;101599.38;5060464;27;45446;-61
2022/11/10 03:13:51;;;;;;;;;8.67;7.00;;;;;11.70;74.16;101602.97;5078250;27;45426;-61
2022/11/10 03:16:17;;;;;;;;;8.00;8.00;;;;;11.63;74.20;101595.34;5077079;27;45350;-60
2022/11/10 03:18:42;;;;;;;;;10.33;9.33;;;;;11.64;74.03;101603.28;5077029;27;45329;-59
2022/11/10 03:21:08;;;;;;;;;8.67;6.00;;;;;11.64;74.45;101613.94;5077131;27;45314;-61
2022/11/10 03:23:34;;;;;;;;;16.75;11.00;;;;;11.59;74.43;101599.97;5072837;27;45438;-60
2022/11/10 03:26:02;;;;;;;;;12.33;11.00;;;;;11.61;74.35;101607.88;5074366;27;45553;-61
2022/11/10 03:28:28;;;;;;;;;8.25;7.75;;;;;11.46;74.84;101588.09;5066651;27;45244;-60
2022/11/10 03:30:53;;;;;;;;;11.75;9.75;;;;;11.56;74.49;101607.19;5063763;27;45331;-61
2022/11/10 03:33:19;;;;;;;;;12.00;8.00;;;;;11.56;74.63;101608.06;5076985;27;45239;-60
2022/11/10 03:35:44;;;;;;;;;8.00;7.67;;;;;11.53;74.79;101600.22;5071417;27;45402;-63
2022/11/10 03:38:09;;;;;;;;;9.00;9.00;;;;;11.50;74.23;101608.34;5066052;27;45363;-61
2022/11/10 03:40:35;;;;;;;;;7.75;6.75;;;;;11.48;74.98;101618.19;5076316;27;45439;-61
2022/11/10 03:43:01;;;;;;;;;10.50;8.00;;;;;11.45;75.06;101615.66;5070883;27;45304;-61
2022/11/10 03:45:27;;;;;;;;;7.25;7.25;;;;;11.41;75.10;101616.72;5041422;27;45470;-63
2022/11/10 03:47:52;;;;;;;;;9.33;8.00;;;;;11.40;75.22;101621.19;5058720;27;45883;-62
2022/11/10 03:50:18;;;;;;;;;13.67;8.67;;;;;11.39;75.18;101623.91;5076042;27;45482;-61
2022/11/10 03:52:44;;;;;;;;;13.75;8.00;;;;;11.39;75.38;101623.91;5072834;27;45347;-61
2022/11/10 03:55:12;;;;;;;;;8.25;8.00;;;;;11.39;74.83;101626.59;5071824;27;45417;-61
2022/11/10 03:57:37;;;;;;;;;7.67;7.00;;;;;11.33;75.47;101629.50;5038147;27;48149;-63
2022/11/10 04:00:04;;;;;;;;;8.25;7.25;;;;;11.37;75.51;101636.44;5057233;27;45363;-61
2022/11/10 04:02:30;;;;;;;;;11.00;7.25;;;;;11.37;75.61;101637.31;5081048;27;45441;-60
2022/11/10 04:10:23;;;;;;;;;7.00;5.00;;;;;11.29;75.79;101638.56;5073722;27;45290;-61
2022/11/10 04:15:41;;;;;;;;;8.50;6.75;;;;;11.18;75.92;101615.91;5074906;27;45350;-60
2022/11/10 04:18:20;;;;;;;;;10.00;8.75;;;;;11.24;76.29;101636.09;5061029;27;45617;-61
2022/11/10 04:20:47;;;;;;;;;7.00;7.00;;;;;11.23;76.65;101637.88;5056385;28;45246;-63
2022/11/10 04:26:27;;;;;;;;;7.33;6.67;;;;;11.23;76.09;101643.22;5071726;27;45371;-63
2022/11/10 04:28:56;;;;;;;;;10.50;9.25;;;;;11.20;76.65;101651.34;5068809;27;45469;-60
2022/11/10 04:31:23;;;;;;;;;9.00;8.00;;;;;11.16;76.15;101641.72;5060178;27;45417;-63
2022/11/10 04:33:50;;;;;;;;;9.00;6.00;;;;;11.15;76.42;101652.44;5064289;27;45289;-62
2022/11/10 04:36:18;;;;;;;;;8.25;7.00;;;;;11.13;76.60;101649.84;5066752;27;45529;-62
2022/11/10 04:38:44;;;;;;;;;9.00;9.00;;;;;11.11;75.96;101656.19;5067153;27;45677;-62
2022/11/10 04:41:10;;;;;;;;;12.00;8.50;;;;;11.07;76.83;101652.78;5038466;27;45347;-61
2022/11/10 04:43:36;;;;;;;;;8.50;8.50;;;;;11.10;76.41;101665.09;5057196;28;45450;-59
2022/11/10 04:46:03;;;;;;;;;9.50;9.50;;;;;11.06;76.62;101664.31;5058119;27;46093;-59
2022/11/10 04:48:30;;;;;;;;;8.33;7.00;;;;;11.05;76.85;101662.59;5064767;27;46361;-62
2022/11/10 04:50:56;;;;;;;;;11.25;8.75;;;;;11.02;76.63;101668.06;5074305;27;45335;-63
2022/11/10 04:53:21;;;;;;;;;6.50;6.00;;;;;11.02;76.57;101673.38;5057667;28;45514;-62
2022/11/10 04:55:47;;;;;;;;;7.67;7.00;;;;;11.00;76.23;101669.06;5059031;27;46050;-62
2022/11/10 04:58:13;;;;;;;;;8.25;6.75;;;;;10.98;76.73;101671.78;5065849;27;45486;-61
2022/11/10 05:00:39;;;;;;;;;8.50;7.00;;;;;10.97;76.97;101675.38;5070827;27;45537;-61
2022/11/10 05:03:08;;;;;;;;;8.50;7.75;;;;;10.96;76.62;101684.28;5076501;28;45569;-60
2022/11/10 05:05:33;;;;;;;;;8.00;6.75;;;;;10.97;77.05;101687.81;5075901;27;45323;-60
2022/11/10 05:08:00;;;;;;;;;8.50;7.00;;;;;10.93;76.93;101695.03;5078782;27;45612;-61
2022/11/10 05:10:25;;;;;;;;;11.00;7.00;;;;;10.90;76.87;101685.38;5074173;27;45254;-61
2022/11/10 05:12:55;;;;;;;;;6.00;4.33;;;;;10.95;76.95;101697.66;5055977;27;45403;-61
2022/11/10 05:15:21;;;;;;;;;8.00;8.00;;;;;10.91;76.97;101707.53;5056262;27;45432;-60
2022/11/10 05:17:48;;;;;;;;;8.00;7.00;;;;;10.90;76.88;101711.13;5055674;27;45318;-62
2022/11/10 05:20:15;;;;;;;;;7.67;7.67;;;;;10.83;77.08;101713.19;5055811;28;45362;-63
2022/11/10 05:22:44;;;;;;;;;8.00;7.25;;;;;10.85;76.93;101716.66;5064924;27;45229;-61
2022/11/10 05:25:10;;;;;;;;;9.00;6.33;;;;;10.82;77.40;101723.88;5076304;27;45401;-62
2022/11/10 05:27:35;;;;;;;;;6.00;6.00;;;;;10.79;77.71;101718.66;5075839;27;46284;-60
2022/11/10 05:30:00;;;;;;;;;12.00;7.00;;;;;10.84;77.44;101732.69;5059223;27;45533;-61
2022/11/10 05:32:26;;;;;;;;;9.00;7.00;;;;;10.77;77.30;101721.38;5075326;27;46020;-61
2022/11/10 05:34:51;;;;;;;;;8.00;6.75;;;;;10.84;76.79;101738.00;5069247;27;45503;-59
2022/11/10 05:37:16;;;;;;;;;5.50;5.50;;;;;10.85;76.89;101737.06;5071601;27;46073;-61
2022/11/10 05:39:45;;;;;;;;;11.25;9.00;;;;;10.82;76.92;101739.84;5064131;27;45253;-61
2022/11/10 05:42:10;;;;;;;;;19.25;12.25;;;;;10.84;77.10;101744.19;5055549;27;45307;-62
2022/11/10 05:44:35;;;;;;;;;9.33;7.67;;;;;10.80;76.94;101737.22;5055897;28;45311;-63
2022/11/10 05:47:01;;;;;;;;;7.00;7.00;;;;;10.86;77.20;101747.66;5060953;27;45855;-64
2022/11/10 05:49:27;;;;;;;;;8.00;8.00;;;;;10.85;77.18;101745.06;5072693;27;45439;-62
2022/11/10 05:51:52;;;;;;;;;16.50;8.25;;;;;10.85;76.93;101740.59;5076033;27;45403;-62
2022/11/10 05:54:18;;;;;;;;;11.00;8.00;;;;;10.85;77.20;101739.72;5058219;28;45426;-60
2022/11/10 05:56:43;;;;;;;;;7.75;7.75;;;;;10.86;76.80;101749.44;5073603;27;46136;-60
2022/11/10 05:59:08;;;;;;;;;7.50;7.50;;;;;10.79;77.10;101735.50;5065998;27;45774;-63
2022/11/10 06:01:37;;;;;;;;;8.75;8.75;;;;;10.88;77.55;101744.94;5069628;27;45355;-61
2022/11/10 06:04:03;;;;;;;;;12.00;8.50;;;;;10.90;77.25;101748.38;5066397;28;45596;-62
2022/11/10 06:06:28;;;;;;;;;12.75;10.00;;;;;10.89;77.33;101747.53;5055050;27;47991;-60
2022/11/10 06:08:55;;;;;;;;;12.00;8.00;;;;;10.86;77.26;101742.34;5076859;27;45576;-61
2022/11/10 06:11:20;;;;;;;;;5.75;5.75;;;;;10.89;77.12;101751.97;5063854;28;45497;-65
2022/11/10 06:13:46;;;;;;;;;9.75;9.25;;;;;10.89;76.98;101750.19;5062891;28;45437;-62
2022/11/10 06:16:11;;;;;;;;;7.00;6.75;;;;;10.92;76.86;101758.03;5080316;27;46188;-66
2022/11/10 06:18:37;;;;;;;;;9.25;7.00;;;;;10.93;76.99;101764.22;5081285;27;45529;-63
2022/11/10 06:21:02;;;;;;;;;9.00;7.25;;;;;10.92;77.11;101757.19;5070126;27;45463;-63
2022/11/10 06:23:29;;;;;;;;;7.75;7.00;;;;;10.86;77.00;101745.00;5058501;28;45640;-63
2022/11/10 06:25:54;;;;;;;;;10.25;9.00;;;;;10.90;77.34;101749.25;5077288;27;46061;-61
2022/11/10 06:28:19;;;;;;;;;7.50;7.50;;;;;10.92;76.87;101757.19;5069240;27;45316;-63
2022/11/10 06:30:45;;;;;;;;;9.67;6.67;;;;;10.89;76.75;101759.97;5098133;27;45372;-65
2022/11/10 06:33:11;;;;;;;;;8.00;7.00;;;;;10.88;77.21;101768.88;5086818;27;45532;-61
2022/11/10 06:35:36;;;;;;;;;1.00;1.00;;;;;10.87;76.92;101777.78;5082656;27;45580;-61
2022/11/10 06:38:09;;;;;;;;;9.75;7.00;;;;;10.88;77.29;101782.19;5061918;28;45260;-59
2022/11/10 06:40:34;;;;;;;;;9.50;8.25;;;;;10.89;77.23;101782.13;5064716;28;45360;-63
2022/11/10 06:43:00;;;;;;;;;10.00;7.25;;;;;10.84;76.94;101775.25;5074819;27;45313;-63
2022/11/10 06:45:27;;;;;;;;;7.50;7.00;;;;;10.84;77.44;101791.22;5070641;28;45609;-62
2022/11/10 06:48:13;;;;;;;;;9.25;7.50;;;;;10.83;76.74;101789.50;5058073;27;45375;-62
2022/11/10 06:50:38;;;;;;;;;8.00;7.25;;;;;10.84;77.06;101794.75;5070556;28;45518;-61
2022/11/10 06:53:04;;;;;;;;;6.75;6.00;;;;;10.77;77.33;101800.34;5060098;28;45411;-61
2022/11/10 06:55:30;;;;;;;;;8.00;8.00;;;;;10.76;77.31;101806.59;5068815;28;46358;-61
2022/11/10 06:57:56;;;;;;;;;10.00;7.25;;;;;10.73;77.30;101799.59;5078216;28;45440;-59
2022/11/10 07:00:21;;;;;;;;;7.75;6.25;;;;;10.70;77.64;101806.84;5078303;28;45379;-61
2022/11/10 07:02:47;;;;;;;;;10.50;8.00;;;;;10.76;76.95;101825.22;5060406;28;45423;-60
2022/11/10 07:05:14;;;;;;;;;11.00;8.00;;;;;10.75;77.04;101827.03;5077899;28;46102;-59
2022/11/10 07:07:39;;;;;;;;;19.50;9.50;;;;;10.73;77.71;101831.53;5078105;27;45440;-60
2022/11/10 07:10:05;;;;;;;;;7.50;7.50;;;;;10.74;77.00;101832.41;5076246;27;45525;-59
2022/11/10 07:12:31;;;;;;;;;8.75;6.75;;;;;10.72;77.32;101844.91;5090262;27;45398;-60
2022/11/10 07:14:56;;;;;;;;;8.50;8.00;;;;;10.64;77.84;101840.72;5097228;27;46138;-60
2022/11/10 07:17:21;;;;;;;;;8.00;7.00;;;;;10.63;77.27;101846.97;5078054;27;45339;-61
2022/11/10 07:19:47;;;;;;;;;8.50;8.50;;;;;10.71;77.77;101856.47;5059380;28;44768;-60
2022/11/10 07:22:12;;;;;;;;;14.00;10.50;;;;;10.70;77.74;101855.59;5078162;27;45204;-60
2022/11/10 07:24:38;;;;;;;;;13.25;11.00;;;;;10.71;77.69;101856.47;5089386;27;45967;-60
2022/11/10 07:27:03;;;;;;;;;11.00;9.50;;;;;10.62;77.62;101844.34;5112663;27;45595;-59
2022/11/10 07:29:28;;;;;;;;;8.50;8.50;;;;;10.66;77.60;101845.09;5097284;27;45490;-59
2022/11/10 07:31:55;;;;;;;;;12.00;11.00;;;;;10.71;77.90;101861.78;5098186;27;45568;-59
2022/11/10 07:34:20;;;;;;;;;13.00;11.00;;;;;10.68;77.58;101856.56;5096478;27;45360;-60
2022/11/10 07:36:46;;;;;;;;;10.25;9.00;;;;;10.76;77.90;101870.47;5059271;28;45366;-60
2022/11/10 07:39:12;;;;;;;;;13.00;11.25;;;;;10.75;77.46;101868.72;5073881;27;45735;-61
2022/11/10 07:41:38;;;;;;;;;12.25;11.25;;;;;10.79;77.75;101873.00;5075321;28;45549;-59
2022/11/10 07:44:03;;;;;;;;;13.00;11.00;;;;;10.81;77.44;101881.81;5075784;28;46180;-58
2022/11/10 07:46:31;;;;;;;;;16.50;10.75;;;;;10.84;77.27;101879.03;5076875;28;45397;-59
2022/11/10 07:48:57;;;;;;;;;18.25;11.75;;;;;10.80;77.18;101874.75;5077421;28;45315;-59
2022/11/10 07:51:23;;;;;;;;;13.00;11.25;;;;;10.83;77.28;101899.47;5058658;28;45255;-60
2022/11/10 07:53:48;;;;;;;;;11.75;11.75;;;;;10.86;77.53;101899.34;5077531;28;45326;-64
2022/11/10 07:56:13;;;;;;;;;11.25;11.25;;;;;10.81;77.34;101889.81;5077745;27;45249;-61
2022/11/10 07:58:39;;;;;;;;;11.75;10.25;;;;;10.91;76.78;101910.69;5077649;28;45214;-59
2022/11/10 08:01:04;;;;;;;;;14.50;13.75;;;;;10.95;76.89;101922.13;5078138;27;45266;-61
2022/11/10 08:03:30;;;;;;;;;12.00;12.00;;;;;11.01;77.24;101926.31;5078991;28;46267;-59
2022/11/10 08:05:55;;;;;;;;;12.00;12.00;;;;;11.03;76.89;101929.78;5078809;28;45382;-59
2022/11/10 08:08:21;;;;;;;;;15.75;13.50;;;;;11.04;76.70;101937.72;5077688;28;45412;-60
2022/11/10 08:10:46;;;;;;;;;15.50;12.25;;;;;11.01;76.94;101937.84;5060770;28;45363;-59
2022/11/10 08:13:13;;;;;;;;;11.00;11.00;;;;;11.09;76.48;101946.44;5078814;28;45311;-60
2022/11/10 08:15:39;;;;;;;;;17.25;13.75;;;;;11.14;76.63;101949.78;5078604;27;45999;-59
2022/11/10 08:18:14;;;;;;;;;13.50;12.25;;;;;11.20;76.44;101954.91;5077731;28;45363;-60
2022/11/10 08:20:41;;;;;;;;;21.00;13.00;;;;;11.21;76.68;101956.63;5076821;27;45326;-58
2022/11/10 08:23:06;;;;;;;;;12.75;12.00;;;;;11.28;76.22;101951.94;5057932;28;47704;-58
2022/11/10 08:25:34;;;;;;;;;14.00;14.00;;;;;11.32;76.11;101966.00;5076274;28;45482;-58
2022/11/10 08:28:05;;;;;;;;;13.25;13.00;;;;;11.34;76.27;101977.50;5077323;28;45220;-60
2022/11/10 08:30:31;;;;;;;;;15.25;13.00;;;;;11.32;75.71;101958.88;5077263;28;45447;-59
2022/11/10 08:33:00;;;;;;;;;7.00;4.50;;;;;11.37;75.70;101961.38;5076538;27;46289;-59
2022/11/10 08:35:28;;;;;;;;;14.25;13.75;;;;;11.43;75.30;101964.66;5076904;28;45295;-60
2022/11/10 08:37:54;;;;;;;;;14.00;13.25;;;;;11.40;75.35;101961.25;5076891;27;45334;-59
2022/11/10 08:40:20;;;;;;;;;19.25;15.50;;;;;11.50;75.38;101973.31;5077468;28;45448;-59
2022/11/10 08:42:47;;;;;;;;;15.25;15.00;;;;;11.43;75.17;101958.47;5077855;27;46388;-58
2022/11/10 08:45:13;;;;;;;;;16.25;14.50;;;;;11.49;74.66;101971.56;5058448;28;45427;-60
2022/11/10 08:47:39;;;;;;;;;13.75;13.25;;;;;11.53;75.17;101978.53;5077206;28;45245;-60
2022/11/10 08:50:05;;;;;;;;;22.50;17.25;;;;;11.57;75.22;101980.13;5077974;28;45217;-58
2022/11/10 08:52:31;;;;;;;;;21.25;17.50;;;;;11.57;74.55;101980.13;5075793;28;46672;-59
2022/11/10 08:54:56;;;;;;;;;20.25;14.75;;;;;11.57;74.38;101968.59;5076762;27;45521;-58
2022/11/10 08:57:21;;;;;;;;;21.50;17.75;;;;;11.70;74.35;101996.53;5076872;28;45260;-61
2022/11/10 08:59:47;;;;;;;;;19.75;15.75;;;;;11.65;74.41;101987.84;5077737;28;45161;-59
2022/11/10 09:02:12;;;;;;;;;14.50;11.00;;;;;11.72;74.51;102000.88;5076334;28;45815;-58
2022/11/10 09:04:38;;;;;;;;;23.50;17.75;;;;;11.69;74.16;101985.00;5076648;28;45393;-59
2022/11/10 09:07:03;;;;;;;;;18.75;18.00;;;;;11.68;74.37;101985.06;5077434;28;45342;-63
2022/11/10 09:09:29;;;;;;;;;20.25;19.25;;;;;11.76;73.78;101997.16;5078108;28;45516;-59
2022/11/10 09:11:57;;;;;;;;;22.25;21.50;;;;;11.82;73.74;102010.28;5077820;28;45862;-65
2022/11/10 09:14:22;;;;;;;;;24.00;20.00;;;;;11.79;73.54;102010.41;5077689;28;45397;-59
2022/11/10 09:16:48;;;;;;;;;25.00;21.50;;;;;11.83;72.90;102021.81;5077814;27;45909;-60
2022/11/10 09:19:15;;;;;;;;;24.00;20.00;;;;;11.81;72.93;102021.00;5077801;28;45505;-60
2022/11/10 09:21:40;;;;;;;;;23.25;20.50;;;;;11.78;73.41;102016.63;5076417;27;45318;-62
2022/11/10 09:24:06;;;;;;;;;23.25;18.25;;;;;11.84;73.33;102022.69;5076733;28;45224;-59
2022/11/10 09:26:32;;;;;;;;;29.00;23.00;;;;;11.85;73.30;102022.66;5058538;28;45188;-59
2022/11/10 09:28:58;;;;;;;;;27.50;22.75;;;;;11.84;73.53;102018.22;5076451;28;45365;-58
2022/11/10 09:31:23;;;;;;;;;27.25;19.50;;;;;11.90;73.07;102025.13;5075928;27;45344;-60
2022/11/10 09:33:48;;;;;;;;;28.25;26.00;;;;;11.94;72.77;102024.06;5075169;28;45381;-59
2022/11/10 09:36:14;;;;;;;;;17.25;17.25;;;;;11.98;73.63;102023.00;5077958;28;45311;-58
2022/11/10 09:38:39;;;;;;;;;26.50;24.00;;;;;12.01;72.99;102026.44;5080102;27;45335;-60
2022/11/10 09:41:11;;;;;;;;;25.75;20.00;;;;;12.05;72.74;102024.50;5079837;28;46058;-60
2022/11/10 09:43:43;;;;;;;;;26.50;23.00;;;;;12.05;72.87;102024.50;5079664;28;45380;-62
2022/11/10 09:46:19;;;;;;;;;25.75;24.00;;;;;12.07;72.91;102023.53;5071308;28;45265;-61
2022/11/10 09:48:54;;;;;;;;;24.50;19.00;;;;;12.13;72.61;102024.22;5073175;27;45335;-61
2022/11/10 09:51:34;;;;;;;;;16.75;14.75;;;;;12.21;72.43;102036.31;5099299;27;45366;-61
2022/11/10 09:54:26;;;;;;;;;22.50;21.75;;;;;12.23;72.16;102031.78;5059831;27;45436;-60
2022/11/10 09:56:54;;;;;;;;;21.00;19.75;;;;;12.30;72.02;102029.75;5061538;28;45399;-60
2022/11/10 09:59:28;;;;;;;;;26.50;22.50;;;;;12.29;72.10;102023.53;5090163;27;45492;-61
2022/11/10 10:02:12;;;;;;;;;20.00;18.50;;;;;12.38;72.37;102027.66;5059105;28;45415;-60
2022/11/10 10:04:47;;;;;;;;;24.67;21.67;;;;;12.43;72.03;102030.13;5058956;28;45365;-60
2022/11/10 10:07:24;;;;;;;;;21.33;19.33;;;;;12.50;70.98;102034.25;5091590;27;45525;-59
2022/11/10 10:10:20;;;;;;;;;20.00;18.67;;;;;12.53;71.22;102044.81;5079753;28;45403;-62
2022/11/10 10:12:55;;;;;;;;;20.25;15.75;;;;;12.53;71.29;102052.84;5079371;27;45559;-60
2022/11/10 10:15:30;;;;;;;;;22.50;20.75;;;;;12.54;71.28;102063.44;5098592;27;45287;-60
2022/11/10 10:18:09;;;;;;;;;23.50;23.50;;;;;12.60;70.73;102070.31;5092750;27;45240;-61
2022/11/10 10:20:46;;;;;;;;;31.00;29.25;;;;;12.60;71.18;102075.66;5067839;27;45534;-61
2022/11/10 10:23:25;;;;;;;;;24.67;20.67;;;;;12.66;70.99;102075.41;5078914;27;45525;-60
2022/11/10 10:25:52;;;;;;;;;26.00;24.25;;;;;12.71;70.83;102070.75;5077382;28;45408;-60
2022/11/10 10:28:37;;;;;;;;;19.75;19.50;;;;;12.80;70.61;102082.84;5079238;27;45402;-60
2022/11/10 10:31:11;;;;;;;;;13.67;13.67;;;;;12.85;70.74;102086.19;5095240;27;45334;-63
2022/11/10 10:33:36;;;;;;;;;20.67;17.33;;;;;12.88;70.52;102089.59;5078963;28;46378;-63
2022/11/10 10:36:15;;;;;;;;;24.00;20.75;;;;;12.92;70.64;102082.34;5077653;27;45353;-62
2022/11/10 10:38:44;;;;;;;;;21.00;20.25;;;;;13.05;69.91;102090.72;5077842;27;45403;-60
2022/11/10 10:41:23;;;;;;;;;19.75;19.75;;;;;13.04;69.59;102092.50;5054413;28;45396;-62
2022/11/10 10:43:50;;;;;;;;;27.25;22.00;;;;;13.23;69.27;102106.84;5094869;27;45371;-61
2022/11/10 10:46:17;;;;;;;;;21.25;19.75;;;;;13.32;69.04;102100.22;5094906;27;45838;-61
2022/11/10 10:48:42;;;;;;;;;21.50;20.50;;;;;13.46;68.47;102105.84;5076353;27;45370;-64
2022/11/10 10:51:08;;;;;;;;;19.25;16.00;;;;;13.51;68.48;102109.16;5077153;28;45632;-61
2022/11/10 10:53:46;;;;;;;;;21.33;20.33;;;;;13.56;68.40;102107.19;5064299;28;45399;-62
2022/11/10 10:56:31;;;;;;;;;24.50;21.00;;;;;13.64;67.66;102097.94;5059979;28;45347;-60
2022/11/10 10:59:03;;;;;;;;;32.00;21.00;;;;;13.72;67.69;102101.13;5076089;27;45444;-59
2022/11/10 11:01:35;;;;;;;;;22.00;20.33;;;;;13.79;67.57;102097.22;5043064;28;45463;-59
2022/11/10 11:04:24;;;;;;;;;21.75;19.25;;;;;13.84;66.86;102092.56;5090198;27;45551;-61
2022/11/10 11:07:22;;;;;;;;;19.67;16.33;;;;;13.79;67.91;102090.06;5067966;27;45497;-60
2022/11/10 11:09:48;;;;;;;;;20.33;19.33;;;;;13.91;67.60;102088.66;5058177;28;45462;-62
2022/11/10 11:12:16;;;;;;;;;27.67;18.67;;;;;13.96;66.78;102081.31;5057402;28;45229;-62
2022/11/10 11:14:41;;;;;;;;;26.67;21.67;;;;;13.98;67.53;102082.09;5071841;27;45562;-62
2022/11/10 11:17:17;;;;;;;;;27.33;23.00;;;;;14.03;67.49;102084.53;5092060;27;45536;-64
2022/11/10 11:19:43;;;;;;;;;28.67;23.67;;;;;14.03;67.11;102076.50;5078603;28;45656;-62
2022/11/10 11:22:27;;;;;;;;;23.00;21.33;;;;;14.13;66.82;102080.50;5078473;28;45377;-65
2022/11/10 11:25:21;;;;;;;;;29.00;21.00;;;;;14.21;66.41;102082.81;5078393;28;45338;-61
2022/11/10 11:28:05;;;;;;;;;24.33;20.00;;;;;14.19;66.30;102082.88;5059219;28;45421;-65
2022/11/10 11:30:39;;;;;;;;;14.33;10.67;;;;;14.16;66.38;102078.53;5072322;27;45768;-61
2022/11/10 11:33:27;;;;;;;;;27.67;21.00;;;;;14.20;66.90;102078.41;5079636;27;45378;-61